Time;durP1;ratioP1;P1;durP2;ratioP2;P2;SDS_P1;SDS_P2;PMS_P1;PMS_P2;Temp;Humidity;BMP_temperature;BMP_pressure;BME280_temperature;BME280_humidity;BME280_pressure;Samples;Min_cycle;Max_cycle;Signal;HPM_P1;HPM_P2
2023/03/20 00:02:26;;;;;;;29.57;17.53;;;;;;;;;;5047167;28;20469;-66
2023/03/20 00:04:52;;;;;;;34.33;18.70;;;;;;;;;;5052313;28;20493;-67
2023/03/20 00:07:19;;;;;;;32.13;18.00;;;;;;;;;;5059109;28;20483;-67
2023/03/20 00:09:48;;;;;;;33.27;19.03;;;;;;;;;;5058792;28;20477;-66
2023/03/20 00:12:15;;;;;;;31.27;18.00;;;;;;;;;;5054945;28;20573;-66
2023/03/20 00:14:42;;;;;;;31.80;17.80;;;;;;;;;;5055361;28;20807;-67
2023/03/20 00:17:09;;;;;;;27.33;18.47;;;;;;;;;;5053022;28;20520;-67
2023/03/20 00:19:36;;;;;;;32.73;17.90;;;;;;;;;;5051786;28;21053;-67
2023/03/20 00:22:03;;;;;;;32.70;18.83;;;;;;;;;;5057238;28;20576;-67
2023/03/20 00:24:29;;;;;;;35.50;20.00;;;;;;;;;;5060084;28;20480;-66
2023/03/20 00:26:57;;;;;;;31.23;19.00;;;;;;;;;;5059700;28;20760;-66
2023/03/20 00:29:24;;;;;;;29.67;17.57;;;;;;;;;;5059475;28;20441;-66
2023/03/20 00:31:52;;;;;;;32.93;18.43;;;;;;;;;;5059634;28;20480;-66
2023/03/20 00:34:21;;;;;;;36.93;19.60;;;;;;;;;;5058062;28;20449;-66
2023/03/20 00:36:47;;;;;;;30.63;18.57;;;;;;;;;;5054351;28;20546;-67
2023/03/20 00:39:13;;;;;;;32.97;18.63;;;;;;;;;;5059600;28;20472;-67
2023/03/20 00:41:42;;;;;;;34.20;19.67;;;;;;;;;;5059198;28;20477;-67
2023/03/20 00:44:16;;;;;;;32.00;18.00;;;;;;;;;;5057801;28;20476;-67
2023/03/20 00:46:43;;;;;;;34.40;17.57;;;;;;;;;;5055395;28;20557;-67
2023/03/20 00:49:10;;;;;;;37.43;18.80;;;;;;;;;;5059223;28;20477;-66
2023/03/20 00:51:38;;;;;;;30.70;16.97;;;;;;;;;;5056102;28;20544;-67
2023/03/20 00:54:05;;;;;;;30.23;16.60;;;;;;;;;;5050392;28;20856;-67
2023/03/20 00:56:33;;;;;;;32.37;18.40;;;;;;;;;;5050784;28;20883;-67
2023/03/20 00:59:00;;;;;;;32.27;18.37;;;;;;;;;;5055942;28;20449;-68
2023/03/20 01:01:28;;;;;;;29.83;17.10;;;;;;;;;;5051261;28;20508;-67
2023/03/20 01:03:54;;;;;;;39.03;20.47;;;;;;;;;;5054312;28;20473;-67
2023/03/20 01:06:27;;;;;;;34.07;17.60;;;;;;;;;;5054705;28;20481;-67
2023/03/20 01:08:56;;;;;;;30.87;18.30;;;;;;;;;;5052297;28;20460;-67
2023/03/20 01:11:23;;;;;;;35.90;18.00;;;;;;;;;;5056261;28;20645;-67
2023/03/20 01:13:51;;;;;;;30.63;18.07;;;;;;;;;;5054936;28;20508;-67
2023/03/20 01:16:19;;;;;;;29.50;17.63;;;;;;;;;;5058668;28;20515;-68
2023/03/20 01:18:47;;;;;;;27.90;16.63;;;;;;;;;;5057484;28;20887;-68
2023/03/20 01:21:14;;;;;;;26.47;16.77;;;;;;;;;;5051862;28;20497;-67
2023/03/20 01:23:40;;;;;;;29.93;18.10;;;;;;;;;;5060040;28;20480;-67
2023/03/20 01:26:11;;;;;;;25.77;16.23;;;;;;;;;;5043855;28;20469;-67
2023/03/20 01:28:38;;;;;;;34.03;17.60;;;;;;;;;;5056908;28;20477;-67
2023/03/20 01:31:05;;;;;;;33.10;17.90;;;;;;;;;;5057779;28;20481;-66
2023/03/20 01:33:31;;;;;;;31.57;17.57;;;;;;;;;;5060135;28;20850;-66
2023/03/20 01:35:59;;;;;;;27.80;16.20;;;;;;;;;;5057447;28;20473;-66
2023/03/20 01:38:26;;;;;;;32.00;17.77;;;;;;;;;;5053194;28;20473;-66
2023/03/20 01:40:54;;;;;;;34.83;16.50;;;;;;;;;;5052763;28;20517;-66
2023/03/20 01:43:22;;;;;;;31.20;17.37;;;;;;;;;;5051158;28;20469;-66
2023/03/20 01:45:53;;;;;;;31.87;16.10;;;;;;;;;;5059500;28;20508;-67
2023/03/20 01:48:20;;;;;;;30.87;17.17;;;;;;;;;;5053902;28;20914;-66
2023/03/20 01:50:47;;;;;;;33.37;17.77;;;;;;;;;;5059953;28;20473;-66
2023/03/20 01:53:17;;;;;;;36.07;18.57;;;;;;;;;;5060978;28;20481;-67
2023/03/20 01:55:44;;;;;;;33.40;18.00;;;;;;;;;;5052027;28;20495;-66
2023/03/20 01:58:14;;;;;;;34.53;17.60;;;;;;;;;;5063325;28;20910;-67
2023/03/20 02:00:40;;;;;;;36.97;21.30;;;;;;;;;;5060422;28;20477;-67
2023/03/20 02:03:08;;;;;;;40.97;21.43;;;;;;;;;;5061517;28;20823;-68
2023/03/20 02:05:35;;;;;;;43.60;20.00;;;;;;;;;;5061987;28;20528;-67
2023/03/20 02:08:13;;;;;;;47.50;22.83;;;;;;;;;;5060173;28;20485;-67
2023/03/20 02:10:41;;;;;;;46.50;23.27;;;;;;;;;;5052577;28;20493;-68
2023/03/20 02:13:07;;;;;;;41.23;22.63;;;;;;;;;;5063287;28;20508;-68
2023/03/20 02:15:35;;;;;;;46.40;23.20;;;;;;;;;;5062219;28;20489;-69
2023/03/20 02:18:01;;;;;;;51.53;24.67;;;;;;;;;;5059462;28;20461;-68
2023/03/20 02:20:33;;;;;;;43.33;23.60;;;;;;;;;;5056319;28;20495;-69
2023/03/20 02:23:14;;;;;;;42.30;23.23;;;;;;;;;;5062082;28;20458;-68
2023/03/20 02:26:04;;;;;;;46.13;23.30;;;;;;;;;;5059817;28;20470;-69
2023/03/20 02:28:52;;;;;;;39.27;21.97;;;;;;;;;;5053194;28;20512;-69
2023/03/20 02:31:36;;;;;;;48.57;23.50;;;;;;;;;;5061170;28;20556;-69
2023/03/20 02:34:18;;;;;;;48.80;24.13;;;;;;;;;;5062053;28;20472;-68
2023/03/20 02:37:07;;;;;;;43.37;23.63;;;;;;;;;;5061494;28;20492;-69
2023/03/20 02:39:51;;;;;;;52.67;24.87;;;;;;;;;;5055756;28;20557;-69
2023/03/20 02:42:22;;;;;;;39.03;21.63;;;;;;;;;;5058811;28;20564;-69
2023/03/20 02:44:52;;;;;;;48.27;25.20;;;;;;;;;;5054469;28;20461;-69
2023/03/20 02:47:21;;;;;;;49.07;23.70;;;;;;;;;;5060906;28;20511;-69
2023/03/20 02:50:03;;;;;;;47.97;24.33;;;;;;;;;;5055681;28;20493;-69
2023/03/20 02:52:33;;;;;;;48.20;23.80;;;;;;;;;;5060843;28;21093;-69
2023/03/20 02:55:04;;;;;;;42.20;23.97;;;;;;;;;;5050941;28;20453;-68
2023/03/20 02:57:36;;;;;;;59.37;25.87;;;;;;;;;;5061057;28;20976;-69
2023/03/20 03:00:08;;;;;;;53.90;23.60;;;;;;;;;;5048319;28;20965;-69
2023/03/20 03:02:37;;;;;;;50.60;25.00;;;;;;;;;;5057771;28;20465;-69
2023/03/20 03:05:04;;;;;;;53.60;25.30;;;;;;;;;;5053328;28;20519;-68
2023/03/20 03:07:33;;;;;;;48.90;24.10;;;;;;;;;;5060427;28;20500;-69
2023/03/20 03:10:01;;;;;;;49.00;24.77;;;;;;;;;;5049778;28;20477;-69
2023/03/20 03:12:29;;;;;;;53.00;26.20;;;;;;;;;;5061480;28;20473;-68
2023/03/20 03:15:00;;;;;;;50.83;25.77;;;;;;;;;;5060986;28;20996;-67
2023/03/20 03:17:27;;;;;;;63.93;26.03;;;;;;;;;;5059303;28;20540;-68
2023/03/20 03:19:57;;;;;;;50.97;24.90;;;;;;;;;;5059619;28;20520;-69
2023/03/20 03:22:24;;;;;;;52.27;24.80;;;;;;;;;;5058760;28;20519;-69
2023/03/20 03:24:51;;;;;;;44.23;22.37;;;;;;;;;;5057442;28;20457;-69
2023/03/20 03:27:19;;;;;;;48.20;25.00;;;;;;;;;;5057015;28;20552;-69
2023/03/20 03:29:47;;;;;;;51.70;24.80;;;;;;;;;;5056905;28;20519;-68
2023/03/20 03:32:23;;;;;;;49.97;25.30;;;;;;;;;;5058087;28;21332;-68
2023/03/20 03:34:49;;;;;;;47.77;25.23;;;;;;;;;;5052010;28;20485;-69
2023/03/20 03:37:20;;;;;;;45.43;24.40;;;;;;;;;;5051220;28;20509;-68
2023/03/20 03:39:49;;;;;;;49.80;25.97;;;;;;;;;;5057252;28;20501;-69
2023/03/20 03:42:19;;;;;;;53.47;26.90;;;;;;;;;;5060506;28;20484;-69
2023/03/20 03:44:48;;;;;;;50.47;26.23;;;;;;;;;;5061608;28;20476;-69
2023/03/20 03:47:16;;;;;;;50.00;25.70;;;;;;;;;;5056474;28;20933;-68
2023/03/20 03:49:47;;;;;;;60.13;27.23;;;;;;;;;;5060967;28;20449;-69
2023/03/20 03:52:16;;;;;;;49.97;26.10;;;;;;;;;;5052863;28;20481;-68
2023/03/20 03:54:44;;;;;;;51.87;27.07;;;;;;;;;;5058681;28;20647;-68
2023/03/20 03:57:11;;;;;;;51.57;25.20;;;;;;;;;;5059576;28;20489;-68
2023/03/20 03:59:40;;;;;;;48.67;25.57;;;;;;;;;;5046646;28;20504;-68
2023/03/20 04:02:07;;;;;;;47.50;27.10;;;;;;;;;;5049251;28;20488;-68
2023/03/20 04:04:35;;;;;;;51.77;25.80;;;;;;;;;;5060206;28;20461;-69
2023/03/20 04:07:03;;;;;;;52.67;25.77;;;;;;;;;;5059456;28;21135;-67
2023/03/20 04:09:29;;;;;;;42.83;24.33;;;;;;;;;;5056663;28;20513;-69
2023/03/20 04:11:56;;;;;;;48.60;25.00;;;;;;;;;;5052369;28;20564;-68
2023/03/20 04:14:22;;;;;;;51.37;27.00;;;;;;;;;;5060676;28;20512;-69
2023/03/20 04:16:49;;;;;;;50.30;26.17;;;;;;;;;;5054339;28;20485;-69
2023/03/20 04:19:15;;;;;;;46.10;25.77;;;;;;;;;;5057321;28;20492;-69
2023/03/20 04:21:42;;;;;;;52.40;24.63;;;;;;;;;;5056508;28;20850;-69
2023/03/20 04:24:11;;;;;;;43.30;25.70;;;;;;;;;;5052533;28;20443;-70
2023/03/20 04:26:38;;;;;;;46.83;26.20;;;;;;;;;;5055585;28;20489;-67
2023/03/20 04:29:05;;;;;;;48.33;27.13;;;;;;;;;;5060058;28;20930;-68
2023/03/20 04:31:31;;;;;;;47.40;25.90;;;;;;;;;;5057905;28;20493;-69
2023/03/20 04:33:58;;;;;;;47.20;26.43;;;;;;;;;;5053501;28;20496;-69
2023/03/20 04:36:24;;;;;;;42.17;25.67;;;;;;;;;;5058565;28;20525;-66
2023/03/20 04:38:50;;;;;;;47.30;24.80;;;;;;;;;;5058745;28;20897;-68
2023/03/20 04:41:19;;;;;;;38.90;23.23;;;;;;;;;;5057359;28;20490;-66
2023/03/20 04:43:46;;;;;;;44.10;24.20;;;;;;;;;;5051755;28;20783;-68
2023/03/20 04:46:12;;;;;;;46.10;25.50;;;;;;;;;;5054834;28;20506;-69
2023/03/20 04:48:39;;;;;;;43.93;25.40;;;;;;;;;;5056134;28;20516;-68
2023/03/20 04:51:06;;;;;;;38.97;23.30;;;;;;;;;;5053271;28;20564;-68
2023/03/20 04:53:32;;;;;;;41.20;21.57;;;;;;;;;;5056724;28;20481;-68
2023/03/20 04:55:58;;;;;;;40.70;23.40;;;;;;;;;;5053481;28;20478;-68
2023/03/20 04:58:26;;;;;;;37.50;21.90;;;;;;;;;;5059762;28;20489;-68
2023/03/20 05:00:52;;;;;;;36.47;21.20;;;;;;;;;;5048989;28;20529;-67
2023/03/20 05:03:19;;;;;;;36.03;21.00;;;;;;;;;;5058579;28;20495;-67
2023/03/20 05:05:46;;;;;;;42.50;22.00;;;;;;;;;;5058062;28;20543;-67
2023/03/20 05:08:12;;;;;;;33.87;21.27;;;;;;;;;;5056280;28;20485;-68
2023/03/20 05:10:38;;;;;;;36.87;20.73;;;;;;;;;;5057712;28;20548;-68
2023/03/20 05:13:05;;;;;;;37.30;20.63;;;;;;;;;;5051938;28;20896;-67
2023/03/20 05:15:33;;;;;;;35.13;21.70;;;;;;;;;;5056548;28;20500;-69
2023/03/20 05:17:59;;;;;;;35.83;21.27;;;;;;;;;;5059232;28;20489;-69
2023/03/20 05:20:26;;;;;;;36.27;21.00;;;;;;;;;;5057301;28;20540;-69
2023/03/20 05:22:52;;;;;;;35.00;19.70;;;;;;;;;;5061076;28;20453;-68
2023/03/20 05:25:18;;;;;;;37.23;21.60;;;;;;;;;;5060929;28;20497;-69
2023/03/20 05:27:45;;;;;;;38.90;21.63;;;;;;;;;;5060649;28;20491;-68
2023/03/20 05:30:12;;;;;;;34.23;21.30;;;;;;;;;;5060117;28;20870;-68
2023/03/20 05:32:40;;;;;;;37.63;21.70;;;;;;;;;;5061433;28;20477;-68
2023/03/20 05:35:07;;;;;;;34.27;20.90;;;;;;;;;;5059310;28;20453;-68
2023/03/20 05:37:34;;;;;;;32.87;19.87;;;;;;;;;;5060680;28;20461;-68
2023/03/20 05:40:00;;;;;;;37.20;20.67;;;;;;;;;;5062931;28;20512;-69
2023/03/20 05:42:27;;;;;;;35.87;19.77;;;;;;;;;;5057480;28;20520;-68
2023/03/20 05:44:53;;;;;;;33.10;19.87;;;;;;;;;;5062771;28;20453;-69
2023/03/20 05:47:20;;;;;;;36.90;19.97;;;;;;;;;;5058196;28;20491;-69
2023/03/20 05:49:47;;;;;;;37.37;20.73;;;;;;;;;;5062211;28;20496;-68
2023/03/20 05:52:14;;;;;;;35.67;21.40;;;;;;;;;;5057372;28;20520;-69
2023/03/20 05:54:40;;;;;;;38.57;22.50;;;;;;;;;;5058216;28;20502;-69
2023/03/20 05:57:07;;;;;;;35.07;19.77;;;;;;;;;;5050993;28;20486;-69
2023/03/20 05:59:33;;;;;;;34.80;20.67;;;;;;;;;;5059693;28;20524;-69
2023/03/20 06:02:00;;;;;;;42.67;23.63;;;;;;;;;;5059550;28;20515;-69
2023/03/20 06:04:26;;;;;;;37.27;20.77;;;;;;;;;;5060802;28;20445;-68
2023/03/20 06:06:54;;;;;;;32.70;19.20;;;;;;;;;;5058063;28;20482;-68
2023/03/20 06:09:20;;;;;;;33.53;20.83;;;;;;;;;;5062875;28;20489;-69
2023/03/20 06:11:47;;;;;;;35.90;21.43;;;;;;;;;;5060235;28;20484;-69
2023/03/20 06:14:13;;;;;;;33.43;19.87;;;;;;;;;;5058515;28;20544;-69
2023/03/20 06:16:40;;;;;;;35.03;20.43;;;;;;;;;;5055402;28;20535;-69
2023/03/20 06:19:06;;;;;;;33.40;20.20;;;;;;;;;;5062248;28;20492;-68
2023/03/20 06:21:32;;;;;;;34.67;21.00;;;;;;;;;;5060377;28;20497;-69
2023/03/20 06:24:00;;;;;;;38.10;22.23;;;;;;;;;;5058231;28;20480;-75
2023/03/20 06:26:26;;;;;;;34.13;20.30;;;;;;;;;;5057526;28;20485;-75
2023/03/20 06:28:53;;;;;;;37.57;21.33;;;;;;;;;;5060706;28;20485;-69
2023/03/20 06:31:19;;;;;;;36.57;21.57;;;;;;;;;;5058402;28;20540;-74
2023/03/20 06:33:47;;;;;;;35.67;22.40;;;;;;;;;;5057900;28;20715;-72
2023/03/20 06:36:13;;;;;;;36.13;20.13;;;;;;;;;;5058226;28;20512;-72
2023/03/20 06:38:40;;;;;;;32.93;20.10;;;;;;;;;;5060955;28;20453;-72
2023/03/20 06:41:08;;;;;;;34.47;20.57;;;;;;;;;;5057793;28;20508;-72
2023/03/20 06:43:34;;;;;;;33.47;20.37;;;;;;;;;;5053535;28;20463;-72
2023/03/20 06:46:01;;;;;;;29.87;19.00;;;;;;;;;;5058112;28;20503;-71
2023/03/20 06:48:27;;;;;;;33.00;21.27;;;;;;;;;;5054560;28;20470;-72
2023/03/20 06:50:54;;;;;;;36.10;21.70;;;;;;;;;;5049343;28;20508;-72
2023/03/20 06:53:20;;;;;;;31.50;20.60;;;;;;;;;;5057759;28;20509;-73
2023/03/20 06:55:47;;;;;;;37.83;20.43;;;;;;;;;;5057011;28;20923;-73
2023/03/20 06:58:15;;;;;;;35.03;20.67;;;;;;;;;;5055185;28;20449;-73
2023/03/20 07:00:42;;;;;;;33.97;20.90;;;;;;;;;;5049036;28;20492;-73
2023/03/20 07:03:08;;;;;;;36.93;22.17;;;;;;;;;;5054389;28;20442;-72
2023/03/20 07:05:35;;;;;;;38.40;23.10;;;;;;;;;;5059879;28;20484;-74
2023/03/20 07:08:01;;;;;;;38.77;23.47;;;;;;;;;;5062012;28;20480;-74
2023/03/20 07:10:28;;;;;;;33.47;22.03;;;;;;;;;;5060629;28;20500;-74
2023/03/20 07:12:54;;;;;;;39.10;22.73;;;;;;;;;;5057685;28;20515;-74
2023/03/20 07:15:23;;;;;;;32.90;21.37;;;;;;;;;;5051928;28;20454;-74
2023/03/20 07:17:49;;;;;;;35.43;21.17;;;;;;;;;;5060871;28;20465;-73
2023/03/20 07:20:16;;;;;;;35.70;22.53;;;;;;;;;;5059103;28;20457;-73
2023/03/20 07:22:42;;;;;;;32.83;20.30;;;;;;;;;;5057977;28;20449;-73
2023/03/20 07:25:09;;;;;;;34.97;22.63;;;;;;;;;;5052709;28;20479;-74
2023/03/20 07:27:36;;;;;;;37.93;22.43;;;;;;;;;;5055848;28;20486;-74
2023/03/20 07:30:03;;;;;;;37.20;21.57;;;;;;;;;;5060979;28;20822;-73
2023/03/20 07:32:30;;;;;;;40.30;22.80;;;;;;;;;;5054465;28;20484;-73
2023/03/20 07:34:57;;;;;;;36.50;22.40;;;;;;;;;;5054414;28;21065;-73
2023/03/20 07:37:23;;;;;;;36.23;21.97;;;;;;;;;;5049896;28;20575;-73
2023/03/20 07:39:50;;;;;;;37.70;22.13;;;;;;;;;;5054700;28;20482;-73
2023/03/20 07:42:16;;;;;;;32.43;20.97;;;;;;;;;;5048572;28;20508;-74
2023/03/20 07:44:42;;;;;;;32.60;20.50;;;;;;;;;;5059214;28;20481;-74
2023/03/20 07:47:09;;;;;;;32.20;21.67;;;;;;;;;;5056515;28;21017;-74
2023/03/20 07:49:37;;;;;;;28.87;18.67;;;;;;;;;;5051784;28;20496;-74
2023/03/20 07:52:03;;;;;;;25.03;17.10;;;;;;;;;;5058043;28;20621;-72
2023/03/20 07:54:30;;;;;;;23.03;15.13;;;;;;;;;;5059896;28;20499;-73
2023/03/20 07:56:56;;;;;;;23.13;15.27;;;;;;;;;;5054048;28;20482;-73
2023/03/20 07:59:23;;;;;;;25.43;16.60;;;;;;;;;;5053329;28;21086;-73
2023/03/20 08:01:49;;;;;;;24.77;15.40;;;;;;;;;;5051831;28;20504;-74
2023/03/20 08:04:18;;;;;;;25.13;16.37;;;;;;;;;;5057012;28;20450;-76
2023/03/20 08:06:46;;;;;;;20.50;14.20;;;;;;;;;;5058916;28;20473;-78
2023/03/20 08:09:12;;;;;;;24.90;15.33;;;;;;;;;;5055275;28;21016;-76
2023/03/20 08:11:39;;;;;;;22.00;15.00;;;;;;;;;;5053927;28;20512;-76
2023/03/20 08:14:05;;;;;;;18.97;14.30;;;;;;;;;;5060508;28;20492;-77
2023/03/20 08:16:32;;;;;;;19.83;14.47;;;;;;;;;;5055069;28;20976;-74
2023/03/20 08:19:00;;;;;;;23.43;15.93;;;;;;;;;;5057972;28;20496;-78
2023/03/20 08:21:26;;;;;;;20.60;15.33;;;;;;;;;;5055362;28;20552;-77
2023/03/20 08:23:54;;;;;;;22.80;16.97;;;;;;;;;;5056249;28;20453;-77
2023/03/20 08:26:21;;;;;;;20.57;14.53;;;;;;;;;;5055447;28;20485;-75
2023/03/20 08:28:47;;;;;;;24.90;17.17;;;;;;;;;;5053968;28;20454;-77
2023/03/20 08:31:14;;;;;;;23.40;17.30;;;;;;;;;;5044196;28;20575;-74
2023/03/20 08:33:40;;;;;;;23.80;17.00;;;;;;;;;;5053249;28;20508;-75
2023/03/20 08:36:07;;;;;;;24.30;17.87;;;;;;;;;;5046243;28;20493;-76
2023/03/20 08:38:33;;;;;;;22.20;16.03;;;;;;;;;;5055475;28;20489;-75
2023/03/20 08:41:01;;;;;;;21.20;15.47;;;;;;;;;;5047531;28;20501;-75
2023/03/20 08:43:28;;;;;;;20.00;14.53;;;;;;;;;;5059980;28;20499;-76
2023/03/20 08:45:54;;;;;;;17.77;13.73;;;;;;;;;;5056715;28;20480;-75
2023/03/20 08:48:21;;;;;;;19.03;14.27;;;;;;;;;;5055727;28;20453;-76
2023/03/20 08:50:48;;;;;;;17.20;13.90;;;;;;;;;;5056321;28;20849;-77
2023/03/20 08:53:14;;;;;;;16.47;12.60;;;;;;;;;;5044568;28;20604;-75
2023/03/20 08:55:41;;;;;;;18.03;11.53;;;;;;;;;;5047619;28;20536;-76
2023/03/20 08:58:08;;;;;;;13.83;10.50;;;;;;;;;;5059375;28;20461;-75
2023/03/20 09:00:35;;;;;;;17.37;9.83;;;;;;;;;;5044142;28;21023;-74
2023/03/20 09:03:01;;;;;;;12.33;9.00;;;;;;;;;;5049506;28;20950;-73
2023/03/20 09:05:28;;;;;;;11.93;9.57;;;;;;;;;;5055642;28;20511;-74
2023/03/20 09:07:54;;;;;;;11.13;7.80;;;;;;;;;;5047221;28;20458;-75
2023/03/20 09:10:21;;;;;;;10.63;9.50;;;;;;;;;;5057680;28;20459;-75
2023/03/20 09:12:47;;;;;;;12.27;7.90;;;;;;;;;;5058951;28;20481;-76
2023/03/20 09:15:15;;;;;;;13.80;8.87;;;;;;;;;;5054608;28;20548;-77
2023/03/20 09:17:41;;;;;;;9.93;7.07;;;;;;;;;;5058136;28;20485;-76
2023/03/20 09:20:09;;;;;;;14.93;8.97;;;;;;;;;;5051215;28;20500;-75
2023/03/20 09:22:35;;;;;;;12.73;8.47;;;;;;;;;;5055801;28;20464;-76
2023/03/20 09:25:01;;;;;;;12.63;8.73;;;;;;;;;;5058430;28;20463;-74
2023/03/20 09:27:28;;;;;;;11.30;8.30;;;;;;;;;;5055355;28;20506;-75
2023/03/20 09:29:54;;;;;;;12.80;9.30;;;;;;;;;;5058417;28;20568;-73
2023/03/20 09:32:22;;;;;;;14.43;10.47;;;;;;;;;;5057727;28;20504;-76
2023/03/20 09:34:49;;;;;;;15.03;9.40;;;;;;;;;;5049266;28;20482;-76
2023/03/20 09:37:15;;;;;;;15.53;10.53;;;;;;;;;;5056002;28;20530;-74
2023/03/20 09:39:42;;;;;;;14.60;10.40;;;;;;;;;;5059103;28;20480;-74
2023/03/20 09:42:14;;;;;;;13.40;10.83;;;;;;;;;;5057818;28;20504;-76
2023/03/20 09:44:46;;;;;;;17.77;13.40;;;;;;;;;;5052986;28;20445;-74
2023/03/20 09:47:17;;;;;;;15.27;11.43;;;;;;;;;;5045394;28;20586;-76
2023/03/20 09:49:48;;;;;;;18.67;13.73;;;;;;;;;;5053563;28;20504;-75
2023/03/20 09:52:22;;;;;;;17.70;12.93;;;;;;;;;;5056074;28;20524;-75
2023/03/20 09:54:50;;;;;;;16.60;11.93;;;;;;;;;;5056973;28;20499;-74
2023/03/20 09:57:19;;;;;;;18.37;12.87;;;;;;;;;;5056601;28;20926;-75
2023/03/20 09:59:46;;;;;;;19.80;13.40;;;;;;;;;;5058617;28;20525;-75
2023/03/20 10:02:15;;;;;;;16.10;12.70;;;;;;;;;;5057208;28;20484;-76
2023/03/20 10:04:42;;;;;;;14.57;11.60;;;;;;;;;;5058816;28;20449;-74
2023/03/20 10:07:12;;;;;;;19.07;11.87;;;;;;;;;;5058284;28;20503;-76
2023/03/20 10:09:38;;;;;;;14.20;11.20;;;;;;;;;;5054894;28;20530;-74
2023/03/20 10:12:28;;;;;;;16.67;11.97;;;;;;;;;;5054568;28;20489;-75
2023/03/20 10:15:00;;;;;;;14.27;10.90;;;;;;;;;;5057123;28;20481;-74
2023/03/20 10:17:34;;;;;;;12.30;9.80;;;;;;;;;;5060491;28;20476;-75
2023/03/20 10:20:08;;;;;;;14.63;9.57;;;;;;;;;;5057693;28;20532;-74
2023/03/20 10:22:37;;;;;;;15.87;10.80;;;;;;;;;;5056653;28;20507;-75
2023/03/20 10:25:07;;;;;;;14.07;10.37;;;;;;;;;;5057525;28;20452;-75
2023/03/20 10:27:37;;;;;;;13.10;9.27;;;;;;;;;;5056884;28;20474;-74
2023/03/20 10:30:12;;;;;;;12.23;10.20;;;;;;;;;;5048062;28;20452;-76
2023/03/20 10:32:43;;;;;;;14.63;10.60;;;;;;;;;;5062003;28;20469;-76
2023/03/20 10:35:15;;;;;;;13.63;11.10;;;;;;;;;;5061185;28;20493;-77
2023/03/20 10:37:51;;;;;;;15.23;11.63;;;;;;;;;;5051756;28;20498;-76
2023/03/20 10:40:22;;;;;;;14.40;11.20;;;;;;;;;;5060614;28;20457;-75
2023/03/20 10:42:50;;;;;;;15.23;12.20;;;;;;;;;;5057962;28;20453;-75
2023/03/20 10:45:23;;;;;;;12.97;10.50;;;;;;;;;;5060938;28;20515;-77
2023/03/20 10:47:51;;;;;;;15.37;12.47;;;;;;;;;;5049903;28;20500;-75
2023/03/20 10:50:18;;;;;;;13.03;11.33;;;;;;;;;;5059527;28;20469;-77
2023/03/20 10:52:48;;;;;;;12.63;11.10;;;;;;;;;;5057464;28;20463;-75
2023/03/20 10:55:16;;;;;;;13.23;10.50;;;;;;;;;;5059805;28;20989;-77
2023/03/20 10:57:47;;;;;;;13.00;10.70;;;;;;;;;;5060458;28;20517;-78
2023/03/20 11:00:18;;;;;;;13.70;10.77;;;;;;;;;;5054216;28;20496;-75
2023/03/20 11:02:45;;;;;;;13.23;10.27;;;;;;;;;;5050166;28;21049;-79
2023/03/20 11:05:20;;;;;;;11.20;9.50;;;;;;;;;;5051386;28;20449;-77
2023/03/20 11:07:49;;;;;;;11.10;9.90;;;;;;;;;;5051788;28;20484;-78
2023/03/20 11:10:16;;;;;;;11.97;9.73;;;;;;;;;;5049221;28;20453;-77
2023/03/20 11:12:43;;;;;;;12.70;9.30;;;;;;;;;;5059012;28;20449;-74
2023/03/20 11:15:16;;;;;;;9.40;7.83;;;;;;;;;;5058965;28;20876;-76
2023/03/20 11:17:42;;;;;;;10.03;7.30;;;;;;;;;;5059742;28;20455;-76
2023/03/20 11:20:10;;;;;;;13.50;7.53;;;;;;;;;;5059136;28;20520;-76
2023/03/20 11:22:37;;;;;;;10.70;8.33;;;;;;;;;;5061588;28;20472;-76
2023/03/20 11:25:05;;;;;;;11.87;8.00;;;;;;;;;;5057386;28;20477;-75
2023/03/20 11:27:33;;;;;;;10.70;9.13;;;;;;;;;;5058526;28;20481;-75
2023/03/20 11:30:01;;;;;;;10.70;8.83;;;;;;;;;;5050772;28;20452;-77
2023/03/20 11:32:30;;;;;;;16.00;8.77;;;;;;;;;;5054167;28;20490;-76
2023/03/20 11:34:57;;;;;;;9.50;8.50;;;;;;;;;;5055525;28;21129;-77
2023/03/20 11:37:24;;;;;;;10.03;8.10;;;;;;;;;;5041763;28;20480;-76
2023/03/20 11:39:57;;;;;;;11.00;9.10;;;;;;;;;;5055462;28;20944;-77
2023/03/20 11:42:26;;;;;;;10.37;9.33;;;;;;;;;;5059360;28;20505;-75
2023/03/20 11:45:00;;;;;;;12.23;9.50;;;;;;;;;;5060988;28;20480;-76
2023/03/20 11:47:27;;;;;;;11.07;9.17;;;;;;;;;;5046726;28;20501;-76
2023/03/20 11:49:55;;;;;;;15.40;9.40;;;;;;;;;;5060436;28;20578;-76
2023/03/20 11:52:23;;;;;;;13.93;9.13;;;;;;;;;;5059071;28;20488;-75
2023/03/20 11:54:51;;;;;;;10.00;8.73;;;;;;;;;;5056590;28;20506;-76
2023/03/20 11:57:29;;;;;;;11.37;8.87;;;;;;;;;;5054978;28;20485;-76
2023/03/20 11:59:57;;;;;;;12.33;8.30;;;;;;;;;;5054298;28;20468;-76
2023/03/20 12:02:25;;;;;;;9.33;8.37;;;;;;;;;;5055469;28;20472;-75
2023/03/20 12:04:52;;;;;;;9.30;8.23;;;;;;;;;;5057147;28;20453;-70
2023/03/20 12:07:20;;;;;;;12.27;8.80;;;;;;;;;;5048374;28;20508;-71
2023/03/20 12:09:48;;;;;;;10.07;8.97;;;;;;;;;;5060306;28;20448;-71
2023/03/20 12:12:18;;;;;;;10.10;6.73;;;;;;;;;;5059985;28;20477;-71
2023/03/20 12:14:50;;;;;;;7.20;6.50;;;;;;;;;;5050531;28;20520;-71
2023/03/20 12:17:40;;;;;;;8.60;6.63;;;;;;;;;;5057073;28;20534;-72
2023/03/20 12:20:12;;;;;;;10.50;6.07;;;;;;;;;;5041956;28;20532;-73
2023/03/20 12:22:42;;;;;;;9.53;6.20;;;;;;;;;;5058822;28;20480;-72
2023/03/20 12:25:16;;;;;;;9.20;4.77;;;;;;;;;;5051903;28;20449;-72
2023/03/20 12:27:47;;;;;;;4.47;3.40;;;;;;;;;;5050290;28;20456;-72
2023/03/20 12:30:17;;;;;;;4.70;3.17;;;;;;;;;;5051192;28;20462;-71
2023/03/20 12:32:47;;;;;;;6.80;3.90;;;;;;;;;;5051549;28;20909;-72
2023/03/20 12:35:16;;;;;;;7.23;3.93;;;;;;;;;;5059068;28;20495;-73
2023/03/20 12:37:43;;;;;;;8.97;3.60;;;;;;;;;;5055574;28;20457;-72
2023/03/20 12:40:12;;;;;;;4.90;4.13;;;;;;;;;;5058625;28;20449;-71
2023/03/20 12:42:44;;;;;;;7.87;4.37;;;;;;;;;;5060075;28;20509;-72
2023/03/20 12:45:12;;;;;;;9.47;5.60;;;;;;;;;;5055538;28;20459;-72
2023/03/20 12:47:51;;;;;;;7.60;5.10;;;;;;;;;;5048797;28;20469;-72
2023/03/20 12:50:21;;;;;;;7.13;4.80;;;;;;;;;;5046412;28;20499;-73
2023/03/20 12:52:51;;;;;;;6.77;6.17;;;;;;;;;;5056187;28;20464;-73
2023/03/20 12:55:25;;;;;;;6.37;5.27;;;;;;;;;;5045338;28;20481;-73
2023/03/20 12:57:59;;;;;;;8.13;5.20;;;;;;;;;;5058791;28;20467;-72
2023/03/20 13:00:30;;;;;;;6.40;4.90;;;;;;;;;;5053920;28;20467;-72
2023/03/20 13:03:05;;;;;;;7.63;5.30;;;;;;;;;;5059773;28;20844;-73
2023/03/20 13:05:35;;;;;;;8.67;5.37;;;;;;;;;;5055002;28;20476;-71
2023/03/20 13:08:10;;;;;;;10.20;4.70;;;;;;;;;;5058956;28;20480;-71
2023/03/20 13:10:37;;;;;;;8.30;5.50;;;;;;;;;;5051303;28;20472;-70
2023/03/20 13:13:10;;;;;;;6.97;6.07;;;;;;;;;;5045433;28;21167;-70
2023/03/20 13:15:46;;;;;;;9.03;6.73;;;;;;;;;;5051158;28;20477;-71
2023/03/20 13:18:17;;;;;;;7.60;6.90;;;;;;;;;;5053071;28;20460;-71
2023/03/20 13:20:48;;;;;;;7.10;6.20;;;;;;;;;;5054994;28;20632;-72
2023/03/20 13:23:19;;;;;;;6.60;5.67;;;;;;;;;;5058763;28;20480;-71
2023/03/20 13:25:53;;;;;;;8.17;5.80;;;;;;;;;;5052489;28;20470;-71
2023/03/20 13:28:24;;;;;;;7.50;5.30;;;;;;;;;;5044131;28;20454;-71
2023/03/20 13:30:54;;;;;;;8.40;5.30;;;;;;;;;;5051138;28;20469;-71
2023/03/20 13:33:30;;;;;;;8.77;5.37;;;;;;;;;;5059477;28;20441;-71
2023/03/20 13:35:59;;;;;;;7.70;5.80;;;;;;;;;;5055159;28;20507;-72
2023/03/20 13:38:28;;;;;;;7.63;5.50;;;;;;;;;;5050937;28;20479;-72
2023/03/20 13:40:58;;;;;;;6.53;4.50;;;;;;;;;;5046971;28;20492;-71
2023/03/20 13:43:26;;;;;;;5.97;3.80;;;;;;;;;;5058209;28;20452;-71
2023/03/20 13:45:56;;;;;;;6.77;4.47;;;;;;;;;;5062036;28;20511;-71
2023/03/20 13:48:28;;;;;;;5.87;3.60;;;;;;;;;;5059202;28;20461;-71
2023/03/20 13:50:58;;;;;;;5.87;3.73;;;;;;;;;;5053424;28;20542;-72
2023/03/20 13:53:29;;;;;;;7.50;4.50;;;;;;;;;;5053406;28;20462;-72
2023/03/20 13:56:00;;;;;;;5.70;4.00;;;;;;;;;;5054792;28;20543;-70
2023/03/20 13:58:41;;;;;;;5.30;3.97;;;;;;;;;;5058270;28;20467;-71
2023/03/20 14:01:10;;;;;;;6.80;4.03;;;;;;;;;;5047997;28;20505;-71
2023/03/20 14:03:39;;;;;;;6.87;3.83;;;;;;;;;;5055115;28;20473;-71
2023/03/20 14:06:16;;;;;;;6.10;3.40;;;;;;;;;;5060963;28;20477;-71
2023/03/20 14:08:47;;;;;;;7.13;3.33;;;;;;;;;;5056930;28;20833;-71
2023/03/20 14:11:15;;;;;;;5.10;3.90;;;;;;;;;;5050577;28;20571;-70
2023/03/20 14:13:46;;;;;;;5.90;3.70;;;;;;;;;;5057313;28;20525;-71
2023/03/20 14:16:14;;;;;;;7.20;3.93;;;;;;;;;;5057765;28;21043;-70
2023/03/20 14:18:43;;;;;;;7.47;4.27;;;;;;;;;;5058758;28;20518;-71
2023/03/20 14:21:12;;;;;;;5.93;3.93;;;;;;;;;;5053447;28;20492;-70
2023/03/20 14:23:39;;;;;;;7.03;3.57;;;;;;;;;;5055588;28;20462;-71
2023/03/20 14:26:08;;;;;;;7.80;3.67;;;;;;;;;;5046650;28;20520;-70
2023/03/20 14:28:44;;;;;;;7.63;4.00;;;;;;;;;;5051716;28;20458;-72
2023/03/20 14:31:21;;;;;;;5.20;4.23;;;;;;;;;;5052912;28;20575;-72
2023/03/20 14:33:53;;;;;;;6.30;3.83;;;;;;;;;;5058685;28;20460;-71